createdAt,value
2019-02-22T00:00:34.968Z,85.55
2019-02-22T00:02:51.207Z,85.50
2019-02-22T00:03:50.156Z,85.44
2019-02-22T00:04:31.425Z,85.36
2019-02-22T00:05:17.937Z,85.31
2019-02-22T00:06:00.494Z,85.26
2019-02-22T00:06:45.973Z,85.22
2019-02-22T00:07:36.586Z,85.13
2019-02-22T00:08:17.329Z,85.07
2019-02-22T00:09:18.166Z,84.97
2019-02-22T00:10:00.013Z,84.84
2019-02-22T00:10:59.533Z,84.76
2019-02-22T00:11:37.288Z,84.71
2019-02-22T00:12:15.200Z,84.64
2019-02-22T00:13:02.380Z,84.60
2019-02-22T00:14:05.371Z,84.41
2019-02-22T00:14:57.108Z,83.79
2019-02-22T00:15:40.137Z,82.70
2019-02-22T00:16:43.384Z,81.72
2019-02-22T00:17:24.241Z,81.42
2019-02-22T00:18:37.899Z,80.88
2019-02-22T00:19:38.891Z,80.66
2019-02-22T00:20:43.101Z,80.21
2019-02-22T00:21:29.386Z,79.95
2019-02-22T00:22:34.678Z,79.77
2019-02-22T00:23:23.019Z,79.67
2019-02-22T00:25:03.562Z,79.48
2019-02-22T00:25:46.311Z,79.34
2019-02-22T00:26:26.234Z,79.09
2019-02-22T00:27:35.470Z,78.67
2019-02-22T00:28:17.385Z,78.43
2019-02-22T00:29:07.782Z,78.12
2019-02-22T00:30:12.687Z,77.89
2019-02-22T00:31:00.496Z,77.85
2019-02-22T00:31:39.850Z,77.81
2019-02-22T00:32:16.918Z,77.67
2019-02-22T00:33:04.422Z,77.61
2019-02-22T00:34:14.373Z,77.30
2019-02-22T00:35:25.622Z,77.30
2019-02-22T00:37:03.617Z,77.32
2019-02-22T00:37:56.491Z,77.29
2019-02-22T00:38:44.178Z,76.94
2019-02-22T00:39:23.920Z,76.98
2019-02-22T00:40:16.634Z,76.03
2019-02-22T00:40:56.139Z,75.82
2019-02-22T00:43:35.985Z,75.82
2019-02-22T00:44:35.902Z,75.42
2019-02-22T00:45:27.088Z,75.19
2019-02-22T00:46:52.808Z,74.89
2019-02-22T00:47:35.027Z,74.91
2019-02-22T00:48:15.417Z,74.94
2019-02-22T00:50:02.687Z,73.61
2019-02-22T00:51:12.316Z,73.62
2019-02-22T00:51:51.031Z,73.42
2019-02-22T00:52:47.049Z,73.10
2019-02-22T00:53:29.902Z,72.75
2019-02-22T00:54:16.969Z,72.48
2019-02-22T00:55:35.713Z,72.30
2019-02-22T00:56:35.291Z,72.22
2019-02-22T00:57:17.362Z,72.09
2019-02-22T00:58:28.399Z,71.75
2019-02-22T00:59:08.457Z,71.74
2019-02-22T01:00:07.590Z,71.43
2019-02-22T01:00:50.242Z,71.52
2019-02-22T01:01:37.372Z,71.68
2019-02-22T01:02:19.255Z,71.83
2019-02-22T01:03:14.387Z,71.83
2019-02-22T01:03:59.936Z,71.25
2019-02-22T01:04:41.073Z,71.19
2019-02-22T01:05:28.520Z,71.27
2019-02-22T01:07:33.214Z,71.20
2019-02-22T01:08:36.304Z,70.35
2019-02-22T01:09:25.260Z,69.90
2019-02-22T01:11:19.951Z,69.81
2019-02-22T01:11:57.196Z,69.44
2019-02-22T01:12:49.137Z,68.77
2019-02-22T01:13:29.984Z,68.47
2019-02-22T01:14:12.853Z,68.47
2019-02-22T01:14:51.903Z,68.43
2019-02-22T01:15:59.170Z,68.39
2019-02-22T01:16:59.619Z,68.49
2019-02-22T01:17:42.490Z,68.49
2019-02-22T01:18:27.524Z,68.33
2019-02-22T01:20:42.179Z,67.47
2019-02-22T01:21:25.211Z,67.47
2019-02-22T01:23:13.258Z,66.08
2019-02-22T01:23:55.164Z,65.94
2019-02-22T01:24:41.910Z,66.25
2019-02-22T01:25:30.597Z,65.94
2019-02-22T01:26:14.348Z,66.09
2019-02-22T01:27:21.475Z,66.09
2019-02-22T01:28:39.700Z,66.44
2019-02-22T01:29:32.018Z,66.78
2019-02-22T01:30:18.511Z,66.78
2019-02-22T01:31:26.833Z,66.99
2019-02-22T01:32:07.656Z,65.35
2019-02-22T01:35:08.838Z,65.79
2019-02-22T01:35:49.752Z,65.99
2019-02-22T01:36:40.111Z,65.73
2019-02-22T01:39:56.110Z,64.79
2019-02-22T01:40:57.527Z,64.32
2019-02-22T01:42:55.311Z,65.32
2019-02-22T01:43:40.975Z,65.32
2019-02-22T01:47:42.555Z,64.87
2019-02-22T01:49:37.622Z,64.34
2019-02-22T01:50:57.039Z,64.07
2019-02-22T01:51:56.078Z,63.71
2019-02-22T01:52:47.939Z,63.32
2019-02-22T01:54:12.527Z,63.18
2019-02-22T01:55:15.600Z,62.98
2019-02-22T01:56:15.439Z,63.13
2019-02-22T01:58:19.552Z,62.82
2019-02-22T01:59:02.065Z,62.36
2019-02-22T02:01:31.631Z,61.72
2019-02-22T02:02:31.431Z,61.77
2019-02-22T02:03:31.740Z,61.79
2019-02-22T02:04:56.650Z,61.62
2019-02-22T02:05:56.464Z,61.24
2019-02-22T02:06:42.373Z,61.25
2019-02-22T02:07:23.399Z,61.01
2019-02-22T02:08:17.239Z,61.03
2019-02-22T02:09:06.678Z,61.07
2019-02-22T02:10:08.387Z,60.84
2019-02-22T02:11:10.054Z,60.65
2019-02-22T02:11:52.208Z,60.35
2019-02-22T02:12:36.466Z,60.50
2019-02-22T02:13:27.924Z,60.55
2019-02-22T02:14:13.099Z,60.28
2019-02-22T02:14:50.967Z,59.66
2019-02-22T02:15:31.824Z,59.30
2019-02-22T02:16:14.338Z,59.33
2019-02-22T02:16:58.755Z,59.77
2019-02-22T02:17:53.461Z,59.72
2019-02-22T02:18:50.068Z,59.63
2019-02-22T02:19:40.296Z,59.40
2019-02-22T02:20:20.480Z,58.98
2019-02-22T02:21:22.655Z,58.90
2019-02-22T02:22:00.352Z,58.96
2019-02-22T02:22:37.709Z,59.08
2019-02-22T02:23:14.684Z,59.06
2019-02-22T02:23:53.760Z,58.99
2019-02-22T02:24:35.340Z,58.89
2019-02-22T02:25:19.140Z,58.79
2019-02-22T02:26:08.124Z,58.68
2019-02-22T02:26:45.729Z,58.61
2019-02-22T02:27:26.699Z,58.58
2019-02-22T02:28:05.606Z,58.47
2019-02-22T02:29:08.593Z,58.22
2019-02-22T02:29:47.285Z,58.01
2019-02-22T02:30:26.340Z,57.63
2019-02-22T02:31:19.079Z,57.45
2019-02-22T02:32:11.114Z,57.43
2019-02-22T02:33:05.209Z,57.48
2019-02-22T02:35:29.510Z,56.53
2019-02-22T02:36:27.763Z,56.45
2019-02-22T02:37:16.928Z,56.33
2019-02-22T02:37:56.293Z,56.00
2019-02-22T02:39:04.142Z,55.95
2019-02-22T02:40:04.341Z,55.82
2019-02-22T02:40:44.040Z,55.72
2019-02-22T02:41:26.440Z,55.66
2019-02-22T02:42:15.102Z,55.68
2019-02-22T02:43:15.102Z,55.83
2019-02-22T02:45:11.748Z,56.05
2019-02-22T02:46:01.896Z,55.82
2019-02-22T02:46:44.129Z,56.04
2019-02-22T02:47:30.930Z,55.81
2019-02-22T02:48:17.366Z,55.69
2019-02-22T02:49:13.845Z,55.67
2019-02-22T02:49:52.307Z,55.71
2019-02-22T02:50:32.603Z,55.75
2019-02-22T02:51:11.540Z,55.74
2019-02-22T02:51:51.888Z,55.79
2019-02-22T02:52:37.986Z,55.71
2019-02-22T02:53:15.632Z,55.44
2019-02-22T02:53:58.914Z,55.46
2019-02-22T02:54:35.551Z,55.58
2019-02-22T02:55:42.741Z,55.19
2019-02-22T02:56:21.950Z,55.04
2019-02-22T02:57:17.438Z,55.00
2019-02-22T02:58:03.727Z,54.79
2019-02-22T02:58:40.108Z,54.70
2019-02-22T02:59:23.190Z,54.59
2019-02-22T03:00:31.457Z,54.71
2019-02-22T03:01:08.457Z,54.80
2019-02-22T03:01:53.812Z,54.26
2019-02-22T03:02:36.734Z,53.97
2019-02-22T03:03:15.991Z,53.96
2019-02-22T03:04:12.606Z,54.09
2019-02-22T03:04:51.301Z,54.34
2019-02-22T03:05:57.675Z,54.21
2019-02-22T03:06:48.815Z,53.96
2019-02-22T03:07:42.376Z,53.90
2019-02-22T03:08:18.767Z,53.88
2019-02-22T03:08:59.379Z,54.05
2019-02-22T03:09:47.370Z,54.10
2019-02-22T03:10:25.941Z,54.17
2019-02-22T03:11:02.703Z,54.02
2019-02-22T03:11:41.820Z,54.01
2019-02-22T03:12:22.291Z,54.19
2019-02-22T03:13:10.075Z,53.84
2019-02-22T03:13:51.945Z,53.98
2019-02-22T03:14:30.779Z,54.23
2019-02-22T03:15:08.260Z,54.05
2019-02-22T03:15:45.345Z,53.76
2019-02-22T03:16:24.778Z,53.60
2019-02-22T03:17:06.535Z,53.54
2019-02-22T03:17:48.144Z,53.65
2019-02-22T03:18:30.092Z,53.49
2019-02-22T03:19:08.705Z,53.38
2019-02-22T03:19:48.454Z,53.32
2019-02-22T03:20:26.639Z,53.16
2019-02-22T03:21:07.863Z,53.11
2019-02-22T03:21:48.329Z,53.07
2019-02-22T03:22:46.281Z,52.99
2019-02-22T03:23:23.485Z,52.98
2019-02-22T03:24:05.227Z,53.00
2019-02-22T03:24:46.841Z,52.84
2019-02-22T03:25:26.699Z,52.67
2019-02-22T03:26:04.971Z,52.56
2019-02-22T03:26:41.115Z,52.56
2019-02-22T03:27:25.278Z,52.59
2019-02-22T03:28:29.507Z,52.68
2019-02-22T03:29:26.652Z,52.68
2019-02-22T03:31:22.519Z,51.88
2019-02-22T03:32:01.006Z,51.74
2019-02-22T03:32:38.748Z,51.77
2019-02-22T03:33:15.879Z,51.82
2019-02-22T03:33:53.681Z,51.74
2019-02-22T03:34:40.348Z,51.86
2019-02-22T03:35:30.678Z,52.00
2019-02-22T03:36:10.240Z,52.12
2019-02-22T03:37:00.793Z,52.19
2019-02-22T03:37:37.297Z,52.09
2019-02-22T03:38:36.470Z,51.92
2019-02-22T03:39:19.594Z,51.80
2019-02-22T03:39:59.992Z,51.71
2019-02-22T03:40:50.727Z,51.52
2019-02-22T03:41:40.827Z,51.51
2019-02-22T03:42:24.555Z,51.61
2019-02-22T03:43:04.431Z,51.86
2019-02-22T03:43:42.635Z,52.22
2019-02-22T03:44:21.505Z,52.20
2019-02-22T03:45:05.363Z,52.37
2019-02-22T03:45:44.149Z,52.36
2019-02-22T03:46:25.460Z,52.31
2019-02-22T03:47:05.594Z,51.83
2019-02-22T03:47:44.598Z,51.60
2019-02-22T03:48:20.755Z,51.50
2019-02-22T03:49:04.531Z,51.54
2019-02-22T03:49:53.738Z,51.62
2019-02-22T03:50:45.460Z,51.80
2019-02-22T03:51:25.122Z,52.25
2019-02-22T03:52:24.002Z,52.05
2019-02-22T03:53:15.380Z,51.88
2019-02-22T03:54:11.275Z,51.64
2019-02-22T03:54:51.647Z,51.36
2019-02-22T03:55:32.580Z,51.02
2019-02-22T03:56:08.899Z,50.91
2019-02-22T03:56:46.496Z,51.00
2019-02-22T03:57:24.520Z,51.02
2019-02-22T03:58:04.426Z,50.72
2019-02-22T03:58:49.018Z,50.60
2019-02-22T03:59:27.403Z,50.65
2019-02-22T04:00:10.975Z,50.65
2019-02-22T04:00:48.282Z,50.65
2019-02-22T04:01:31.081Z,50.40
2019-02-22T04:02:07.923Z,50.57
2019-02-22T04:03:02.328Z,50.45
2019-02-22T04:03:44.853Z,50.39
2019-02-22T04:04:24.761Z,50.55
2019-02-22T04:05:01.514Z,50.85
2019-02-22T04:05:40.104Z,50.80
2019-02-22T04:06:19.487Z,50.89
2019-02-22T04:06:59.096Z,50.93
2019-02-22T04:07:38.647Z,51.05
2019-02-22T04:08:18.832Z,51.14
2019-02-22T04:08:59.603Z,50.77
2019-02-22T04:09:46.179Z,50.56
2019-02-22T04:10:22.319Z,50.97
2019-02-22T04:11:01.891Z,51.87
2019-02-22T04:11:45.659Z,51.91
2019-02-22T04:12:18.105Z,51.68
2019-02-22T04:12:55.253Z,51.61
2019-02-22T04:13:31.891Z,51.37
2019-02-22T04:14:12.537Z,51.27
2019-02-22T04:14:58.628Z,51.28
2019-02-22T04:15:37.542Z,51.49
2019-02-22T04:16:17.083Z,51.37
2019-02-22T04:16:56.354Z,51.28
2019-02-22T04:17:32.864Z,51.25
2019-02-22T04:18:12.278Z,51.61
2019-02-22T04:18:49.643Z,52.21
2019-02-22T04:19:32.505Z,52.39
2019-02-22T04:20:25.022Z,52.21
2019-02-22T04:21:06.641Z,51.77
2019-02-22T04:21:47.478Z,52.02
2019-02-22T04:22:26.725Z,52.45
2019-02-22T04:23:05.025Z,52.70
2019-02-22T04:23:48.500Z,52.89
2019-02-22T04:24:37.593Z,52.64
2019-02-22T04:25:15.449Z,52.63
2019-02-22T04:26:02.072Z,52.64
2019-02-22T04:26:44.283Z,51.99
2019-02-22T04:27:38.344Z,51.69
2019-02-22T04:28:34.369Z,51.37
2019-02-22T04:29:12.126Z,51.02
2019-02-22T04:29:49.502Z,50.93
2019-02-22T04:30:51.844Z,50.79
2019-02-22T04:31:31.796Z,50.89
2019-02-22T04:32:24.620Z,51.17
2019-02-22T04:33:02.999Z,51.44
2019-02-22T04:33:43.158Z,51.08
2019-02-22T04:34:20.791Z,51.06
2019-02-22T04:34:59.436Z,51.09
2019-02-22T04:35:56.358Z,51.05
2019-02-22T04:37:00.414Z,51.28
2019-02-22T04:37:48.218Z,50.95
2019-02-22T04:38:28.171Z,51.03
2019-02-22T04:39:38.855Z,50.71
2019-02-22T04:40:56.906Z,50.33
2019-02-22T04:41:57.353Z,49.30
2019-02-22T04:42:27.654Z,48.45
2019-02-22T04:43:21.174Z,47.92
2019-02-22T04:44:01.376Z,47.87
2019-02-22T04:44:48.922Z,48.50
2019-02-22T04:45:33.037Z,48.44
2019-02-22T04:46:22.347Z,48.51
2019-02-22T04:47:05.456Z,48.35
2019-02-22T04:47:45.374Z,48.40
2019-02-22T04:48:29.125Z,48.23
2019-02-22T04:49:08.079Z,47.86
2019-02-22T04:49:56.174Z,47.67
2019-02-22T04:50:33.802Z,47.65
2019-02-22T04:51:16.524Z,47.75
2019-02-22T04:51:54.122Z,47.95
2019-02-22T04:52:40.497Z,47.89
2019-02-22T04:53:16.694Z,47.77
2019-02-22T04:54:12.251Z,47.51
2019-02-22T04:54:49.862Z,47.78
2019-02-22T04:56:23.591Z,48.16
2019-02-22T04:56:59.834Z,48.19
2019-02-22T04:57:43.009Z,48.06
2019-02-22T04:58:20.334Z,48.08
2019-02-22T04:58:59.986Z,47.97
2019-02-22T04:59:36.266Z,47.93
2019-02-22T05:00:20.594Z,48.11
2019-02-22T05:01:02.979Z,48.30
2019-02-22T05:02:05.016Z,48.59
2019-02-22T05:02:43.491Z,48.93
2019-02-22T05:03:21.102Z,49.08
2019-02-22T05:04:10.074Z,49.15
2019-02-22T05:05:11.486Z,49.27
2019-02-22T05:06:11.358Z,49.19
2019-02-22T05:07:48.620Z,49.08
2019-02-22T05:08:24.961Z,49.35
2019-02-22T05:09:14.377Z,49.37
2019-02-22T05:10:06.425Z,49.15
2019-02-22T05:12:10.526Z,49.17
2019-02-22T05:12:40.458Z,49.06
2019-02-22T05:13:23.661Z,49.05
2019-02-22T05:14:02.793Z,49.07
2019-02-22T05:14:43.055Z,49.45
2019-02-22T05:16:01.882Z,49.88
2019-02-22T05:16:44.642Z,49.99
2019-02-22T05:17:35.777Z,50.08
2019-02-22T05:18:17.406Z,50.61
2019-02-22T05:19:31.644Z,50.85
2019-02-22T05:20:21.598Z,50.87
2019-02-22T05:21:08.354Z,50.47
2019-02-22T05:21:54.701Z,50.28
2019-02-22T05:22:33.673Z,50.98
2019-02-22T05:23:11.902Z,50.82
2019-02-22T05:23:57.875Z,51.08
2019-02-22T05:24:40.063Z,51.26
2019-02-22T05:25:18.724Z,51.48
2019-02-22T05:26:14.723Z,51.71
2019-02-22T05:26:53.424Z,51.88
2019-02-22T05:27:58.648Z,52.35
2019-02-22T05:28:45.552Z,52.13
2019-02-22T05:29:41.042Z,51.56
2019-02-22T05:30:23.501Z,51.25
2019-02-22T05:31:23.195Z,51.37
2019-02-22T05:32:02.259Z,51.70
2019-02-22T05:32:59.326Z,52.11
2019-02-22T05:34:52.948Z,50.83
2019-02-22T05:35:47.259Z,51.69
2019-02-22T05:36:38.565Z,52.24
2019-02-22T05:37:28.062Z,51.94
2019-02-22T05:38:04.470Z,52.14
2019-02-22T05:38:40.707Z,52.33
2019-02-22T05:39:19.279Z,51.87
2019-02-22T05:40:00.530Z,51.54
2019-02-22T05:40:37.737Z,51.52
2019-02-22T05:41:27.290Z,51.79
2019-02-22T05:42:22.250Z,52.23
2019-02-22T05:42:55.867Z,52.57
2019-02-22T05:43:34.891Z,52.61
2019-02-22T05:44:17.038Z,52.20
2019-02-22T05:45:17.186Z,52.02
2019-02-22T05:46:16.460Z,51.96
2019-02-22T05:47:00.279Z,51.33
2019-02-22T05:48:50.812Z,51.17
2019-02-22T05:49:33.882Z,50.80
2019-02-22T05:50:18.829Z,50.72
2019-02-22T05:52:19.355Z,50.81
2019-02-22T05:53:21.868Z,50.81
2019-02-22T05:54:54.098Z,49.99
2019-02-22T05:55:32.891Z,49.97
2019-02-22T05:56:12.897Z,49.77
2019-02-22T05:56:51.597Z,49.31
2019-02-22T05:57:33.119Z,49.36
2019-02-22T05:58:16.267Z,49.69
2019-02-22T05:58:56.037Z,49.70
2019-02-22T06:00:11.663Z,49.78
2019-02-22T06:01:01.758Z,49.45
2019-02-22T06:01:44.683Z,49.22
2019-02-22T06:02:47.158Z,49.05
2019-02-22T06:03:51.715Z,48.94
2019-02-22T06:04:44.325Z,48.81
2019-02-22T06:05:21.997Z,49.48
2019-02-22T06:06:07.697Z,50.10
2019-02-22T06:06:59.062Z,50.11
2019-02-22T06:08:01.145Z,49.92
2019-02-22T06:08:48.695Z,50.09
2019-02-22T06:09:35.790Z,49.69
2019-02-22T06:10:14.488Z,49.87
2019-02-22T06:11:10.005Z,50.08
2019-02-22T06:12:11.118Z,50.13
2019-02-22T06:12:55.530Z,50.30
2019-02-22T06:14:36.016Z,51.02
2019-02-22T06:15:14.556Z,50.96
2019-02-22T06:15:56.685Z,50.80
2019-02-22T06:17:14.481Z,50.56
2019-02-22T06:17:47.206Z,50.33
2019-02-22T06:18:37.382Z,50.28
2019-02-22T06:20:53.436Z,50.30
2019-02-22T06:21:32.936Z,49.99
2019-02-22T06:22:29.816Z,50.15
2019-02-22T06:23:30.783Z,50.27
2019-02-22T06:24:08.714Z,50.75
2019-02-22T06:24:48.529Z,50.57
2019-02-22T06:25:34.917Z,50.23
2019-02-22T06:26:13.247Z,50.23
2019-02-22T06:26:53.198Z,50.82
2019-02-22T06:27:48.109Z,50.77
2019-02-22T06:28:24.722Z,50.73
2019-02-22T06:29:04.426Z,50.63
2019-02-22T06:29:45.069Z,50.64
2019-02-22T06:30:41.808Z,51.18
2019-02-22T06:31:29.475Z,51.49
2019-02-22T06:32:08.649Z,51.15
2019-02-22T06:33:03.823Z,50.78
2019-02-22T06:33:43.959Z,50.79
2019-02-22T06:34:24.819Z,50.95
2019-02-22T06:35:23.225Z,51.09
2019-02-22T06:36:47.203Z,51.07
2019-02-22T06:37:25.958Z,50.68
2019-02-22T06:38:03.593Z,50.83
2019-02-22T06:39:32.065Z,51.05
2019-02-22T06:40:35.268Z,51.29
2019-02-22T06:41:31.364Z,52.22
2019-02-22T06:42:09.699Z,52.64
2019-02-22T06:43:02.076Z,53.09
2019-02-22T06:43:59.821Z,53.01
2019-02-22T06:44:59.214Z,53.37
2019-02-22T06:45:44.541Z,53.58
2019-02-22T06:46:31.277Z,53.39
2019-02-22T06:47:31.516Z,53.46
2019-02-22T06:48:23.992Z,53.67
2019-02-22T06:49:06.798Z,53.88
2019-02-22T06:50:45.103Z,54.07
2019-02-22T06:51:42.170Z,54.25
2019-02-22T06:52:19.557Z,54.36
2019-02-22T06:52:59.950Z,54.39
2019-02-22T06:53:38.527Z,54.19
2019-02-22T06:54:15.634Z,54.11
2019-02-22T06:54:57.340Z,54.11
2019-02-22T06:55:38.565Z,54.14
2019-02-22T06:56:15.691Z,54.37
2019-02-22T06:57:02.499Z,54.50
2019-02-22T06:57:59.512Z,54.57
2019-02-22T06:58:36.311Z,54.59
2019-02-22T06:59:21.955Z,54.39
2019-02-22T07:00:15.443Z,54.28
2019-02-22T07:01:12.767Z,54.20
2019-02-22T07:01:54.406Z,54.19
2019-02-22T07:02:39.999Z,54.29
2019-02-22T07:03:25.599Z,54.33
2019-02-22T07:04:07.294Z,54.30
2019-02-22T07:04:44.448Z,54.23
2019-02-22T07:06:05.789Z,54.40
2019-02-22T07:06:47.998Z,54.53
2019-02-22T07:07:31.734Z,54.88
2019-02-22T07:08:13.135Z,54.96
2019-02-22T07:08:53.872Z,54.93
2019-02-22T07:09:32.069Z,54.93
2019-02-22T07:10:16.892Z,54.99
2019-02-22T07:11:19.850Z,55.08
2019-02-22T07:12:04.605Z,55.44
2019-02-22T07:13:00.782Z,55.79
2019-02-22T07:13:37.047Z,55.98
2019-02-22T07:14:22.258Z,56.08
2019-02-22T07:15:03.756Z,56.02
2019-02-22T07:15:41.697Z,55.74
2019-02-22T07:16:24.625Z,55.49
2019-02-22T07:17:08.259Z,55.43
2019-02-22T07:17:57.514Z,55.51
2019-02-22T07:18:37.978Z,55.78
2019-02-22T07:19:15.161Z,56.12
2019-02-22T07:20:03.077Z,56.47
2019-02-22T07:20:41.235Z,56.72
2019-02-22T07:21:19.763Z,56.92
2019-02-22T07:22:12.762Z,56.86
2019-02-22T07:23:06.559Z,57.04
2019-02-22T07:23:54.004Z,57.09
2019-02-22T07:24:35.750Z,57.15
2019-02-22T07:25:24.560Z,57.32
2019-02-22T07:26:26.953Z,57.42
2019-02-22T07:27:04.306Z,57.58
2019-02-22T07:28:03.710Z,57.78
2019-02-22T07:28:58.169Z,58.02
2019-02-22T07:29:42.062Z,58.05
2019-02-22T07:30:19.798Z,58.12
2019-02-22T07:31:00.125Z,58.15
2019-02-22T07:31:40.253Z,58.30
2019-02-22T07:32:28.625Z,58.49
2019-02-22T07:33:12.083Z,58.50
2019-02-22T07:33:48.946Z,58.82
2019-02-22T07:34:42.314Z,59.03
2019-02-22T07:35:22.927Z,59.27
2019-02-22T07:36:00.909Z,59.93
2019-02-22T07:36:37.152Z,59.94
2019-02-22T07:37:22.038Z,60.29
2019-02-22T07:37:59.804Z,60.30
2019-02-22T07:38:38.406Z,60.29
2019-02-22T07:39:27.380Z,60.59
2019-02-22T07:39:57.048Z,60.87
2019-02-22T07:40:35.225Z,60.88
2019-02-22T07:41:20.606Z,60.90
2019-02-22T07:41:58.548Z,60.98
2019-02-22T07:42:34.996Z,61.02
2019-02-22T07:43:24.152Z,61.02
2019-02-22T07:44:18.874Z,61.09
2019-02-22T07:45:00.442Z,61.03
2019-02-22T07:45:43.955Z,61.03
2019-02-22T07:46:42.420Z,61.04
2019-02-22T07:47:25.360Z,61.14
2019-02-22T07:48:09.188Z,61.10
2019-02-22T07:49:08.828Z,61.08
2019-02-22T07:49:59.673Z,61.09
2019-02-22T07:50:58.453Z,61.29
2019-02-22T07:51:47.364Z,61.37
2019-02-22T07:52:26.861Z,61.63
2019-02-22T07:54:13.689Z,61.64
2019-02-22T07:55:07.401Z,61.39
2019-02-22T07:55:57.292Z,61.00
2019-02-22T07:56:40.666Z,60.80
2019-02-22T07:57:35.887Z,60.72
2019-02-22T07:58:18.374Z,60.80
2019-02-22T07:59:06.781Z,60.55
2019-02-22T07:59:53.288Z,60.33
2019-02-22T08:00:52.466Z,60.42
2019-02-22T08:01:46.954Z,60.75
2019-02-22T08:02:18.619Z,60.39
2019-02-22T08:02:54.862Z,60.11
2019-02-22T08:04:36.011Z,59.38
2019-02-22T08:05:20.354Z,59.25
2019-02-22T08:06:17.815Z,59.10
2019-02-22T08:07:04.186Z,58.76
2019-02-22T08:07:42.237Z,58.19
2019-02-22T08:08:23.900Z,57.28
2019-02-22T08:09:02.708Z,56.60
2019-02-22T08:09:43.968Z,56.28
2019-02-22T08:10:46.087Z,56.42
2019-02-22T08:11:23.508Z,56.24
2019-02-22T08:12:02.268Z,55.90
2019-02-22T08:12:42.388Z,55.86
2019-02-22T08:13:33.685Z,55.90
2019-02-22T08:14:16.306Z,55.92
2019-02-22T08:14:52.481Z,55.89
2019-02-22T08:15:35.459Z,55.57
2019-02-22T08:16:18.575Z,55.20
2019-02-22T08:17:08.118Z,54.97
2019-02-22T08:17:48.037Z,54.94
2019-02-22T08:18:27.526Z,54.84
2019-02-22T08:19:21.830Z,54.79
2019-02-22T08:20:06.357Z,54.79
2019-02-22T08:20:48.483Z,54.75
2019-02-22T08:21:49.493Z,54.79
2019-02-22T08:22:43.276Z,54.80
2019-02-22T08:23:27.119Z,54.60
2019-02-22T08:24:21.157Z,54.74
2019-02-22T08:24:58.081Z,54.84
2019-02-22T08:25:36.366Z,55.11
2019-02-22T08:26:13.313Z,55.36
2019-02-22T08:26:56.347Z,55.71
2019-02-22T08:27:41.864Z,55.89
2019-02-22T08:28:30.112Z,56.32
2019-02-22T08:29:22.938Z,56.46
2019-02-22T08:30:19.338Z,56.26
2019-02-22T08:31:11.456Z,56.43
2019-02-22T08:32:55.202Z,56.83
2019-02-22T08:33:39.024Z,56.86
2019-02-22T08:35:19.058Z,56.99
2019-02-22T08:36:03.737Z,57.14
2019-02-22T08:36:56.407Z,57.29
2019-02-22T08:39:57.464Z,57.56
2019-02-22T08:40:45.744Z,57.54
2019-02-22T08:41:30.263Z,57.51
2019-02-22T08:42:11.010Z,57.68
2019-02-22T08:42:58.385Z,57.58
2019-02-22T08:43:57.405Z,57.36
2019-02-22T08:44:56.138Z,57.23
2019-02-22T08:45:43.214Z,57.13
2019-02-22T08:46:20.489Z,57.36
2019-02-22T08:47:21.798Z,57.50
2019-02-22T08:48:09.140Z,57.66
2019-02-22T08:49:06.327Z,57.61
2019-02-22T08:49:44.758Z,57.44
2019-02-22T08:50:45.896Z,56.90
2019-02-22T08:51:30.599Z,56.79
2019-02-22T08:52:45.031Z,56.78
2019-02-22T08:53:25.385Z,56.68
2019-02-22T08:55:10.364Z,56.69
2019-02-22T08:55:52.339Z,56.69
2019-02-22T08:56:47.331Z,56.53
2019-02-22T08:57:34.928Z,56.45
2019-02-22T08:59:14.205Z,56.46
2019-02-22T09:00:05.201Z,56.39
2019-02-22T09:00:41.672Z,56.46
2019-02-22T09:01:19.212Z,56.50
2019-02-22T09:01:58.235Z,56.46
2019-02-22T09:02:46.233Z,56.31
2019-02-22T09:03:32.158Z,56.30
2019-02-22T09:04:12.285Z,56.33
2019-02-22T09:05:10.992Z,56.31
2019-02-22T09:05:56.218Z,56.27
2019-02-22T09:06:52.483Z,56.05
2019-02-22T09:07:30.859Z,55.95
2019-02-22T09:09:42.474Z,56.28
2019-02-22T09:10:20.479Z,56.53
2019-02-22T09:11:00.720Z,56.42
2019-02-22T09:11:38.916Z,56.32
2019-02-22T09:12:15.864Z,56.37
2019-02-22T09:13:01.682Z,56.40
2019-02-22T09:13:43.661Z,56.43
2019-02-22T09:14:25.668Z,56.47
2019-02-22T09:16:05.991Z,56.47
2019-02-22T09:16:47.279Z,56.48
2019-02-22T09:17:57.617Z,56.31
2019-02-22T09:18:49.178Z,56.40
2019-02-22T09:19:26.944Z,56.60
2019-02-22T09:20:34.194Z,56.58
2019-02-22T09:21:17.062Z,56.47
2019-02-22T09:21:54.552Z,56.64
2019-02-22T09:23:19.761Z,56.75
2019-02-22T09:24:35.491Z,56.83
2019-02-22T09:25:18.815Z,56.57
2019-02-22T09:25:59.936Z,56.47
2019-02-22T09:27:18.553Z,56.45
2019-02-22T09:28:10.100Z,56.48
2019-02-22T09:28:49.449Z,56.49
2019-02-22T09:29:34.650Z,56.72
2019-02-22T09:30:20.391Z,56.98
2019-02-22T09:32:16.808Z,57.22
2019-02-22T09:33:00.629Z,57.31
2019-02-22T09:33:39.498Z,57.46
2019-02-22T09:34:48.108Z,57.53
2019-02-22T09:35:36.988Z,57.84
2019-02-22T09:36:21.043Z,57.90
2019-02-22T09:37:12.047Z,57.95
2019-02-22T09:37:49.734Z,57.86
2019-02-22T09:38:45.097Z,57.79
2019-02-22T09:40:15.065Z,57.75
2019-02-22T09:41:06.416Z,57.74
2019-02-22T09:42:18.717Z,57.76
2019-02-22T09:43:09.918Z,57.70
2019-02-22T09:44:22.167Z,57.77
2019-02-22T09:45:05.124Z,57.81
2019-02-22T09:47:21.032Z,58.02
2019-02-22T09:48:08.266Z,57.92
2019-02-22T09:48:46.035Z,57.92
2019-02-22T09:49:36.057Z,58.01
2019-02-22T09:50:27.145Z,58.04
2019-02-22T09:51:10.515Z,58.12
2019-02-22T09:51:53.349Z,58.33
2019-02-22T09:52:47.300Z,58.49
2019-02-22T09:54:16.113Z,58.58
2019-02-22T09:54:53.030Z,58.50
2019-02-22T09:55:31.023Z,58.23
2019-02-22T09:56:14.164Z,58.22
2019-02-22T09:56:57.374Z,58.36
2019-02-22T09:57:34.763Z,58.50
2019-02-22T09:58:34.329Z,58.62
2019-02-22T09:59:35.515Z,58.78
2019-02-22T10:00:33.516Z,58.96
2019-02-22T10:01:25.251Z,59.17
2019-02-22T10:02:25.107Z,59.31
2019-02-22T10:03:15.610Z,59.29
2019-02-22T10:04:03.440Z,59.36
2019-02-22T10:04:54.627Z,59.44
2019-02-22T10:05:34.378Z,59.42
2019-02-22T10:06:12.788Z,59.43
2019-02-22T10:07:12.253Z,59.37
2019-02-22T10:08:08.805Z,59.26
2019-02-22T10:09:19.450Z,59.17
2019-02-22T10:10:01.887Z,59.09
2019-02-22T10:10:41.436Z,59.23
2019-02-22T10:11:35.310Z,59.23
2019-02-22T10:12:15.581Z,59.28
2019-02-22T10:13:31.474Z,59.40
2019-02-22T10:14:42.863Z,59.57
2019-02-22T10:15:42.359Z,59.76
2019-02-22T10:16:42.435Z,59.96
2019-02-22T10:17:22.871Z,60.33
2019-02-22T10:18:07.646Z,60.35
2019-02-22T10:18:51.976Z,60.45
2019-02-22T10:19:30.090Z,60.55
2019-02-22T10:20:12.850Z,60.73
2019-02-22T10:21:15.733Z,60.82
2019-02-22T10:21:58.828Z,60.96
2019-02-22T10:22:43.094Z,61.29
2019-02-22T10:23:24.996Z,61.40
2019-02-22T10:24:15.039Z,61.57
2019-02-22T10:25:02.871Z,61.67
2019-02-22T10:26:21.408Z,61.71
2019-02-22T10:26:57.480Z,61.93
2019-02-22T10:28:05.379Z,61.95
2019-02-22T10:28:47.003Z,61.98
2019-02-22T10:29:27.802Z,62.07
2019-02-22T10:30:05.428Z,62.13
2019-02-22T10:30:47.133Z,62.27
2019-02-22T10:31:34.080Z,62.33
2019-02-22T10:32:15.926Z,62.66
2019-02-22T10:33:19.974Z,62.99
2019-02-22T10:34:28.483Z,63.21
2019-02-22T10:35:32.634Z,63.56
2019-02-22T10:36:09.617Z,64.39
2019-02-22T10:36:53.657Z,64.79
2019-02-22T10:38:07.387Z,65.07
2019-02-22T10:38:55.288Z,65.12
2019-02-22T10:39:33.177Z,65.17
2019-02-22T10:40:35.345Z,65.19
2019-02-22T10:41:12.545Z,65.59
2019-02-22T10:41:53.277Z,66.11
2019-02-22T10:42:33.101Z,66.16
2019-02-22T10:43:14.921Z,66.16
2019-02-22T10:44:17.349Z,66.11
2019-02-22T10:45:11.610Z,66.12
2019-02-22T10:46:07.765Z,66.14
2019-02-22T10:46:51.886Z,66.08
2019-02-22T10:47:31.051Z,66.10
2019-02-22T10:48:09.091Z,66.07
2019-02-22T10:49:11.227Z,66.05
2019-02-22T10:49:50.629Z,66.05
2019-02-22T10:50:30.623Z,66.42
2019-02-22T10:51:29.610Z,66.80
2019-02-22T10:52:09.748Z,67.07
2019-02-22T10:52:48.844Z,67.05
2019-02-22T10:53:32.767Z,67.25
2019-02-22T10:54:09.213Z,67.32
2019-02-22T10:54:46.249Z,67.35
2019-02-22T10:55:25.686Z,67.35
2019-02-22T10:56:05.239Z,67.39
2019-02-22T10:57:02.917Z,67.42
2019-02-22T10:58:05.284Z,67.44
2019-02-22T10:58:46.612Z,67.51
2019-02-22T10:59:52.831Z,67.62
2019-02-22T11:00:41.894Z,67.62
2019-02-22T11:01:24.092Z,67.64
2019-02-22T11:02:09.984Z,67.64
2019-02-22T11:03:04.170Z,67.68